sensor_id;sensor_type;location;lat;lon;timestamp;P1;durP1;ratioP1;P2;durP2;ratioP2
57846;SDS011;43675;50.030;21.952;2023-03-01T00:00:22;286.70;;;148.90;;
57846;SDS011;43675;50.030;21.952;2023-03-01T00:03:09;270.30;;;143.30;;
57846;SDS011;43675;50.030;21.952;2023-03-01T00:05:36;230.40;;;130.60;;
57846;SDS011;43675;50.030;21.952;2023-03-01T00:08:02;257.90;;;139.30;;
57846;SDS011;43675;50.030;21.952;2023-03-01T00:10:29;275.60;;;147.90;;
57846;SDS011;43675;50.030;21.952;2023-03-01T00:12:55;264.20;;;144.20;;
57846;SDS011;43675;50.030;21.952;2023-03-01T00:15:22;264.40;;;142.30;;
57846;SDS011;43675;50.030;21.952;2023-03-01T00:17:48;241.50;;;132.20;;
57846;SDS011;43675;50.030;21.952;2023-03-01T00:20:15;254.00;;;139.90;;
57846;SDS011;43675;50.030;21.952;2023-03-01T00:22:42;250.30;;;137.20;;
57846;SDS011;43675;50.030;21.952;2023-03-01T00:25:08;259.30;;;135.20;;
57846;SDS011;43675;50.030;21.952;2023-03-01T00:27:35;254.30;;;138.10;;
57846;SDS011;43675;50.030;21.952;2023-03-01T00:30:02;261.30;;;138.80;;
57846;SDS011;43675;50.030;21.952;2023-03-01T00:32:29;262.90;;;140.20;;
57846;SDS011;43675;50.030;21.952;2023-03-01T00:34:55;258.60;;;139.00;;
57846;SDS011;43675;50.030;21.952;2023-03-01T00:37:22;272.10;;;141.70;;
57846;SDS011;43675;50.030;21.952;2023-03-01T00:39:50;280.40;;;146.40;;
57846;SDS011;43675;50.030;21.952;2023-03-01T00:42:16;280.30;;;146.60;;
57846;SDS011;43675;50.030;21.952;2023-03-01T00:44:43;277.50;;;141.90;;
57846;SDS011;43675;50.030;21.952;2023-03-01T00:47:09;269.70;;;139.50;;
57846;SDS011;43675;50.030;21.952;2023-03-01T00:49:36;268.40;;;141.50;;
57846;SDS011;43675;50.030;21.952;2023-03-01T00:52:03;273.80;;;142.80;;
57846;SDS011;43675;50.030;21.952;2023-03-01T00:54:29;286.60;;;143.60;;
57846;SDS011;43675;50.030;21.952;2023-03-01T00:56:56;285.20;;;147.00;;
57846;SDS011;43675;50.030;21.952;2023-03-01T00:59:22;283.10;;;143.50;;
57846;SDS011;43675;50.030;21.952;2023-03-01T01:01:49;274.10;;;141.70;;
57846;SDS011;43675;50.030;21.952;2023-03-01T01:04:15;283.60;;;146.30;;
57846;SDS011;43675;50.030;21.952;2023-03-01T01:06:43;278.20;;;141.70;;
57846;SDS011;43675;50.030;21.952;2023-03-01T01:09:12;273.90;;;140.10;;
57846;SDS011;43675;50.030;21.952;2023-03-01T01:11:41;270.60;;;140.90;;
57846;SDS011;43675;50.030;21.952;2023-03-01T01:14:08;271.50;;;139.10;;
57846;SDS011;43675;50.030;21.952;2023-03-01T01:16:34;271.60;;;139.80;;
57846;SDS011;43675;50.030;21.952;2023-03-01T01:19:01;270.10;;;137.40;;
57846;SDS011;43675;50.030;21.952;2023-03-01T01:21:28;258.40;;;135.80;;
57846;SDS011;43675;50.030;21.952;2023-03-01T01:23:56;247.60;;;131.20;;
57846;SDS011;43675;50.030;21.952;2023-03-01T01:26:30;257.90;;;136.40;;
57846;SDS011;43675;50.030;21.952;2023-03-01T01:28:59;249.60;;;132.40;;
57846;SDS011;43675;50.030;21.952;2023-03-01T01:31:27;239.30;;;126.30;;
57846;SDS011;43675;50.030;21.952;2023-03-01T01:33:54;240.20;;;125.30;;
57846;SDS011;43675;50.030;21.952;2023-03-01T01:36:22;232.80;;;125.30;;
57846;SDS011;43675;50.030;21.952;2023-03-01T01:38:49;226.00;;;122.40;;
57846;SDS011;43675;50.030;21.952;2023-03-01T01:41:16;224.90;;;122.50;;
57846;SDS011;43675;50.030;21.952;2023-03-01T01:43:44;222.20;;;121.30;;
57846;SDS011;43675;50.030;21.952;2023-03-01T01:46:31;215.50;;;115.50;;
57846;SDS011;43675;50.030;21.952;2023-03-01T01:49:00;226.60;;;117.30;;
57846;SDS011;43675;50.030;21.952;2023-03-01T01:51:35;228.10;;;119.50;;
57846;SDS011;43675;50.030;21.952;2023-03-01T01:54:14;210.50;;;116.20;;
57846;SDS011;43675;50.030;21.952;2023-03-01T01:56:50;206.90;;;112.90;;
57846;SDS011;43675;50.030;21.952;2023-03-01T01:59:23;205.90;;;111.70;;
57846;SDS011;43675;50.030;21.952;2023-03-01T02:01:51;212.90;;;115.70;;
57846;SDS011;43675;50.030;21.952;2023-03-01T02:04:19;230.70;;;123.30;;
57846;SDS011;43675;50.030;21.952;2023-03-01T02:09:46;219.80;;;121.80;;
57846;SDS011;43675;50.030;21.952;2023-03-01T02:12:19;221.20;;;118.80;;
57846;SDS011;43675;50.030;21.952;2023-03-01T02:17:16;200.10;;;107.80;;
57846;SDS011;43675;50.030;21.952;2023-03-01T02:30:22;202.40;;;106.90;;
57846;SDS011;43675;50.030;21.952;2023-03-01T02:32:51;212.70;;;111.20;;
57846;SDS011;43675;50.030;21.952;2023-03-01T02:35:19;274.20;;;135.30;;
57846;SDS011;43675;50.030;21.952;2023-03-01T02:37:47;259.60;;;134.40;;
57846;SDS011;43675;50.030;21.952;2023-03-01T02:40:15;231.80;;;124.50;;
57846;SDS011;43675;50.030;21.952;2023-03-01T02:42:50;239.60;;;128.20;;
57846;SDS011;43675;50.030;21.952;2023-03-01T02:45:20;236.00;;;126.90;;
57846;SDS011;43675;50.030;21.952;2023-03-01T02:47:47;242.00;;;127.90;;
57846;SDS011;43675;50.030;21.952;2023-03-01T02:50:25;258.70;;;133.00;;
57846;SDS011;43675;50.030;21.952;2023-03-01T02:53:32;242.60;;;124.50;;
57846;SDS011;43675;50.030;21.952;2023-03-01T02:56:18;238.10;;;126.20;;
57846;SDS011;43675;50.030;21.952;2023-03-01T02:58:45;245.20;;;128.30;;
57846;SDS011;43675;50.030;21.952;2023-03-01T03:01:12;244.30;;;125.80;;
57846;SDS011;43675;50.030;21.952;2023-03-01T03:03:39;231.70;;;121.80;;
57846;SDS011;43675;50.030;21.952;2023-03-01T03:06:05;207.60;;;110.20;;
57846;SDS011;43675;50.030;21.952;2023-03-01T03:08:32;222.50;;;114.60;;
57846;SDS011;43675;50.030;21.952;2023-03-01T03:10:59;198.70;;;108.70;;
57846;SDS011;43675;50.030;21.952;2023-03-01T03:13:25;196.80;;;106.30;;
57846;SDS011;43675;50.030;21.952;2023-03-01T03:15:52;181.80;;;99.10;;
57846;SDS011;43675;50.030;21.952;2023-03-01T03:18:18;176.20;;;98.60;;
57846;SDS011;43675;50.030;21.952;2023-03-01T03:20:45;177.50;;;99.40;;
57846;SDS011;43675;50.030;21.952;2023-03-01T03:23:12;178.40;;;100.10;;
57846;SDS011;43675;50.030;21.952;2023-03-01T03:25:39;182.50;;;98.70;;
57846;SDS011;43675;50.030;21.952;2023-03-01T03:28:06;166.20;;;92.60;;
57846;SDS011;43675;50.030;21.952;2023-03-01T03:30:33;174.00;;;95.70;;
57846;SDS011;43675;50.030;21.952;2023-03-01T03:33:00;176.60;;;97.30;;
57846;SDS011;43675;50.030;21.952;2023-03-01T03:35:28;175.50;;;95.50;;
57846;SDS011;43675;50.030;21.952;2023-03-01T03:37:56;159.30;;;90.90;;
57846;SDS011;43675;50.030;21.952;2023-03-01T03:40:24;166.80;;;94.50;;
57846;SDS011;43675;50.030;21.952;2023-03-01T03:42:53;164.50;;;89.60;;
57846;SDS011;43675;50.030;21.952;2023-03-01T03:45:20;175.10;;;95.50;;
57846;SDS011;43675;50.030;21.952;2023-03-01T03:47:47;163.70;;;91.00;;
57846;SDS011;43675;50.030;21.952;2023-03-01T03:50:14;193.50;;;106.70;;
57846;SDS011;43675;50.030;21.952;2023-03-01T03:52:43;190.10;;;99.90;;
57846;SDS011;43675;50.030;21.952;2023-03-01T03:55:10;197.90;;;104.60;;
57846;SDS011;43675;50.030;21.952;2023-03-01T03:57:38;177.40;;;94.90;;
57846;SDS011;43675;50.030;21.952;2023-03-01T04:00:10;164.40;;;94.10;;
57846;SDS011;43675;50.030;21.952;2023-03-01T04:02:39;188.50;;;98.90;;
57846;SDS011;43675;50.030;21.952;2023-03-01T04:05:07;201.50;;;102.20;;
57846;SDS011;43675;50.030;21.952;2023-03-01T04:07:36;187.80;;;106.40;;
57846;SDS011;43675;50.030;21.952;2023-03-01T04:10:04;190.00;;;103.40;;
57846;SDS011;43675;50.030;21.952;2023-03-01T04:12:32;188.50;;;100.70;;
57846;SDS011;43675;50.030;21.952;2023-03-01T04:15:00;195.60;;;103.00;;
57846;SDS011;43675;50.030;21.952;2023-03-01T04:17:27;176.40;;;98.00;;
57846;SDS011;43675;50.030;21.952;2023-03-01T04:19:54;200.20;;;111.40;;
57846;SDS011;43675;50.030;21.952;2023-03-01T04:22:21;221.00;;;120.10;;
57846;SDS011;43675;50.030;21.952;2023-03-01T04:24:47;217.40;;;119.90;;
57846;SDS011;43675;50.030;21.952;2023-03-01T04:27:14;218.90;;;118.10;;
57846;SDS011;43675;50.030;21.952;2023-03-01T04:29:40;218.80;;;116.70;;
57846;SDS011;43675;50.030;21.952;2023-03-01T04:32:07;219.10;;;117.10;;
57846;SDS011;43675;50.030;21.952;2023-03-01T04:34:33;229.40;;;122.60;;
57846;SDS011;43675;50.030;21.952;2023-03-01T04:37:00;239.90;;;123.80;;
57846;SDS011;43675;50.030;21.952;2023-03-01T04:39:26;225.80;;;119.10;;
57846;SDS011;43675;50.030;21.952;2023-03-01T04:41:53;251.10;;;132.60;;
57846;SDS011;43675;50.030;21.952;2023-03-01T04:44:19;254.30;;;133.30;;
57846;SDS011;43675;50.030;21.952;2023-03-01T04:46:48;236.10;;;121.50;;
57846;SDS011;43675;50.030;21.952;2023-03-01T04:49:15;224.30;;;120.50;;
57846;SDS011;43675;50.030;21.952;2023-03-01T04:51:42;192.30;;;103.60;;
57846;SDS011;43675;50.030;21.952;2023-03-01T04:54:08;180.90;;;97.20;;
57846;SDS011;43675;50.030;21.952;2023-03-01T04:56:35;181.30;;;99.20;;
57846;SDS011;43675;50.030;21.952;2023-03-01T04:59:02;203.20;;;110.40;;
57846;SDS011;43675;50.030;21.952;2023-03-01T05:01:28;191.80;;;101.40;;
57846;SDS011;43675;50.030;21.952;2023-03-01T05:03:55;217.90;;;113.30;;
57846;SDS011;43675;50.030;21.952;2023-03-01T05:06:21;212.90;;;114.00;;
57846;SDS011;43675;50.030;21.952;2023-03-01T05:08:48;210.10;;;111.00;;
57846;SDS011;43675;50.030;21.952;2023-03-01T05:11:15;214.10;;;113.50;;
57846;SDS011;43675;50.030;21.952;2023-03-01T05:13:41;189.40;;;101.80;;
57846;SDS011;43675;50.030;21.952;2023-03-01T05:16:08;188.40;;;101.70;;
57846;SDS011;43675;50.030;21.952;2023-03-01T05:18:35;193.70;;;105.70;;
57846;SDS011;43675;50.030;21.952;2023-03-01T05:21:03;190.70;;;102.30;;
57846;SDS011;43675;50.030;21.952;2023-03-01T05:23:35;190.70;;;107.10;;
57846;SDS011;43675;50.030;21.952;2023-03-01T05:26:02;184.00;;;101.90;;
57846;SDS011;43675;50.030;21.952;2023-03-01T05:28:31;193.70;;;104.60;;
57846;SDS011;43675;50.030;21.952;2023-03-01T05:30:58;188.70;;;98.30;;
57846;SDS011;43675;50.030;21.952;2023-03-01T05:33:24;182.00;;;97.00;;
57846;SDS011;43675;50.030;21.952;2023-03-01T05:35:52;184.00;;;98.40;;
57846;SDS011;43675;50.030;21.952;2023-03-01T05:38:19;198.90;;;104.50;;
57846;SDS011;43675;50.030;21.952;2023-03-01T05:40:47;230.90;;;113.90;;
57846;SDS011;43675;50.030;21.952;2023-03-01T05:43:15;243.60;;;128.30;;
57846;SDS011;43675;50.030;21.952;2023-03-01T05:45:43;229.90;;;119.60;;
57846;SDS011;43675;50.030;21.952;2023-03-01T05:48:11;224.60;;;115.30;;
57846;SDS011;43675;50.030;21.952;2023-03-01T05:50:39;190.70;;;104.90;;
57846;SDS011;43675;50.030;21.952;2023-03-01T05:55:36;219.00;;;113.40;;
57846;SDS011;43675;50.030;21.952;2023-03-01T05:58:04;212.60;;;113.10;;
57846;SDS011;43675;50.030;21.952;2023-03-01T06:00:33;217.90;;;113.60;;
57846;SDS011;43675;50.030;21.952;2023-03-01T06:03:00;205.30;;;110.50;;
57846;SDS011;43675;50.030;21.952;2023-03-01T06:05:27;193.60;;;106.90;;
57846;SDS011;43675;50.030;21.952;2023-03-01T06:07:55;197.90;;;108.60;;
57846;SDS011;43675;50.030;21.952;2023-03-01T06:10:25;192.00;;;105.80;;
57846;SDS011;43675;50.030;21.952;2023-03-01T06:12:52;187.00;;;102.80;;
57846;SDS011;43675;50.030;21.952;2023-03-01T06:15:19;189.00;;;105.70;;
57846;SDS011;43675;50.030;21.952;2023-03-01T06:17:46;193.70;;;110.60;;
57846;SDS011;43675;50.030;21.952;2023-03-01T06:20:15;187.60;;;107.10;;
57846;SDS011;43675;50.030;21.952;2023-03-01T06:22:46;189.80;;;102.80;;
57846;SDS011;43675;50.030;21.952;2023-03-01T06:25:14;175.10;;;102.30;;
57846;SDS011;43675;50.030;21.952;2023-03-01T06:27:43;188.30;;;107.10;;
57846;SDS011;43675;50.030;21.952;2023-03-01T06:30:11;195.50;;;108.40;;
57846;SDS011;43675;50.030;21.952;2023-03-01T06:32:40;201.20;;;113.20;;
57846;SDS011;43675;50.030;21.952;2023-03-01T06:35:08;205.50;;;114.50;;
57846;SDS011;43675;50.030;21.952;2023-03-01T06:37:40;195.20;;;110.90;;
57846;SDS011;43675;50.030;21.952;2023-03-01T06:40:08;199.50;;;111.00;;
57846;SDS011;43675;50.030;21.952;2023-03-01T06:42:37;181.40;;;101.30;;
57846;SDS011;43675;50.030;21.952;2023-03-01T06:45:06;173.20;;;99.50;;
57846;SDS011;43675;50.030;21.952;2023-03-01T06:47:34;174.90;;;98.40;;
57846;SDS011;43675;50.030;21.952;2023-03-01T06:50:01;164.60;;;94.70;;
57846;SDS011;43675;50.030;21.952;2023-03-01T06:52:29;181.50;;;102.20;;
57846;SDS011;43675;50.030;21.952;2023-03-01T06:54:56;175.00;;;99.70;;
57846;SDS011;43675;50.030;21.952;2023-03-01T06:57:23;173.60;;;99.70;;
57846;SDS011;43675;50.030;21.952;2023-03-01T06:59:50;173.50;;;103.50;;
57846;SDS011;43675;50.030;21.952;2023-03-01T07:02:16;187.40;;;104.80;;
57846;SDS011;43675;50.030;21.952;2023-03-01T07:04:43;169.30;;;99.30;;
57846;SDS011;43675;50.030;21.952;2023-03-01T07:07:09;171.10;;;98.80;;
57846;SDS011;43675;50.030;21.952;2023-03-01T07:09:37;159.00;;;92.90;;
57846;SDS011;43675;50.030;21.952;2023-03-01T07:12:03;130.30;;;82.90;;
57846;SDS011;43675;50.030;21.952;2023-03-01T07:14:30;126.30;;;77.60;;
57846;SDS011;43675;50.030;21.952;2023-03-01T07:16:57;136.50;;;77.80;;
57846;SDS011;43675;50.030;21.952;2023-03-01T07:19:24;122.80;;;75.00;;
57846;SDS011;43675;50.030;21.952;2023-03-01T07:21:50;124.30;;;76.10;;
57846;SDS011;43675;50.030;21.952;2023-03-01T07:24:19;128.00;;;82.20;;
57846;SDS011;43675;50.030;21.952;2023-03-01T07:26:48;123.50;;;78.00;;
57846;SDS011;43675;50.030;21.952;2023-03-01T07:29:15;120.40;;;80.90;;
57846;SDS011;43675;50.030;21.952;2023-03-01T07:31:42;117.00;;;76.40;;
57846;SDS011;43675;50.030;21.952;2023-03-01T07:34:09;117.50;;;76.80;;
57846;SDS011;43675;50.030;21.952;2023-03-01T07:36:36;99.80;;;67.90;;
57846;SDS011;43675;50.030;21.952;2023-03-01T07:39:04;94.00;;;58.20;;
57846;SDS011;43675;50.030;21.952;2023-03-01T07:41:31;89.30;;;58.80;;
57846;SDS011;43675;50.030;21.952;2023-03-01T07:43:59;105.90;;;65.10;;
57846;SDS011;43675;50.030;21.952;2023-03-01T07:46:26;96.90;;;61.40;;
57846;SDS011;43675;50.030;21.952;2023-03-01T07:48:53;83.10;;;54.70;;
57846;SDS011;43675;50.030;21.952;2023-03-01T07:51:20;75.70;;;53.00;;
57846;SDS011;43675;50.030;21.952;2023-03-01T07:53:47;69.50;;;48.90;;
57846;SDS011;43675;50.030;21.952;2023-03-01T07:56:14;70.60;;;49.00;;
57846;SDS011;43675;50.030;21.952;2023-03-01T07:58:42;52.00;;;42.80;;
57846;SDS011;43675;50.030;21.952;2023-03-01T08:01:11;61.00;;;45.80;;
57846;SDS011;43675;50.030;21.952;2023-03-01T08:03:39;54.60;;;44.10;;
57846;SDS011;43675;50.030;21.952;2023-03-01T08:06:07;54.00;;;43.10;;
57846;SDS011;43675;50.030;21.952;2023-03-01T08:08:35;50.20;;;42.90;;
57846;SDS011;43675;50.030;21.952;2023-03-01T08:11:03;48.90;;;42.10;;
57846;SDS011;43675;50.030;21.952;2023-03-01T08:13:31;61.50;;;47.00;;
57846;SDS011;43675;50.030;21.952;2023-03-01T08:16:02;65.90;;;49.60;;
57846;SDS011;43675;50.030;21.952;2023-03-01T08:18:30;61.20;;;46.40;;
57846;SDS011;43675;50.030;21.952;2023-03-01T08:21:01;67.50;;;47.30;;
57846;SDS011;43675;50.030;21.952;2023-03-01T08:23:29;73.70;;;52.90;;
57846;SDS011;43675;50.030;21.952;2023-03-01T08:26:02;82.20;;;56.90;;
57846;SDS011;43675;50.030;21.952;2023-03-01T08:28:33;80.10;;;56.20;;
57846;SDS011;43675;50.030;21.952;2023-03-01T08:31:00;78.60;;;55.40;;
57846;SDS011;43675;50.030;21.952;2023-03-01T08:33:27;72.70;;;51.70;;
57846;SDS011;43675;50.030;21.952;2023-03-01T08:36:01;69.90;;;50.40;;
57846;SDS011;43675;50.030;21.952;2023-03-01T08:38:29;70.90;;;50.20;;
57846;SDS011;43675;50.030;21.952;2023-03-01T08:40:58;70.10;;;48.30;;
57846;SDS011;43675;50.030;21.952;2023-03-01T08:43:26;63.80;;;45.20;;
57846;SDS011;43675;50.030;21.952;2023-03-01T08:45:52;61.30;;;43.10;;
57846;SDS011;43675;50.030;21.952;2023-03-01T08:48:19;47.40;;;36.50;;
57846;SDS011;43675;50.030;21.952;2023-03-01T08:50:45;41.00;;;31.70;;
57846;SDS011;43675;50.030;21.952;2023-03-01T08:53:12;40.20;;;32.50;;
57846;SDS011;43675;50.030;21.952;2023-03-01T08:55:39;40.10;;;30.80;;
57846;SDS011;43675;50.030;21.952;2023-03-01T08:58:05;37.30;;;30.80;;
57846;SDS011;43675;50.030;21.952;2023-03-01T09:00:32;37.80;;;30.00;;
57846;SDS011;43675;50.030;21.952;2023-03-01T09:02:58;39.50;;;30.40;;
57846;SDS011;43675;50.030;21.952;2023-03-01T09:05:25;45.00;;;32.20;;
57846;SDS011;43675;50.030;21.952;2023-03-01T09:07:52;36.40;;;28.90;;
57846;SDS011;43675;50.030;21.952;2023-03-01T09:10:18;37.00;;;29.70;;
57846;SDS011;43675;50.030;21.952;2023-03-01T09:12:45;37.60;;;31.40;;
57846;SDS011;43675;50.030;21.952;2023-03-01T09:15:11;37.80;;;30.00;;
57846;SDS011;43675;50.030;21.952;2023-03-01T09:17:38;35.60;;;30.00;;
57846;SDS011;43675;50.030;21.952;2023-03-01T09:20:05;36.70;;;28.90;;
57846;SDS011;43675;50.030;21.952;2023-03-01T09:22:35;36.60;;;29.20;;
57846;SDS011;43675;50.030;21.952;2023-03-01T09:25:01;39.20;;;29.90;;
57846;SDS011;43675;50.030;21.952;2023-03-01T09:27:28;40.60;;;32.20;;
57846;SDS011;43675;50.030;21.952;2023-03-01T09:29:54;42.30;;;32.30;;
57846;SDS011;43675;50.030;21.952;2023-03-01T09:32:21;45.50;;;33.70;;
57846;SDS011;43675;50.030;21.952;2023-03-01T09:34:47;46.10;;;32.90;;
57846;SDS011;43675;50.030;21.952;2023-03-01T09:37:14;48.10;;;35.00;;
57846;SDS011;43675;50.030;21.952;2023-03-01T09:39:41;46.00;;;34.50;;
57846;SDS011;43675;50.030;21.952;2023-03-01T09:42:10;46.80;;;33.90;;
57846;SDS011;43675;50.030;21.952;2023-03-01T09:44:40;45.60;;;34.60;;
57846;SDS011;43675;50.030;21.952;2023-03-01T09:47:10;46.40;;;33.90;;
57846;SDS011;43675;50.030;21.952;2023-03-01T09:49:44;52.20;;;34.80;;
57846;SDS011;43675;50.030;21.952;2023-03-01T09:52:33;47.10;;;34.90;;
57846;SDS011;43675;50.030;21.952;2023-03-01T09:55:26;51.90;;;35.60;;
57846;SDS011;43675;50.030;21.952;2023-03-01T10:00:56;45.70;;;35.40;;
57846;SDS011;43675;50.030;21.952;2023-03-01T10:03:34;51.60;;;36.60;;
57846;SDS011;43675;50.030;21.952;2023-03-01T10:06:10;47.60;;;35.70;;
57846;SDS011;43675;50.030;21.952;2023-03-01T10:08:55;47.50;;;36.60;;
57846;SDS011;43675;50.030;21.952;2023-03-01T10:14:33;49.60;;;35.40;;
57846;SDS011;43675;50.030;21.952;2023-03-01T10:16:55;47.30;;;34.60;;
57846;SDS011;43675;50.030;21.952;2023-03-01T10:19:30;49.30;;;36.30;;
57846;SDS011;43675;50.030;21.952;2023-03-01T10:21:57;47.20;;;35.90;;
57846;SDS011;43675;50.030;21.952;2023-03-01T10:24:31;50.40;;;35.00;;
57846;SDS011;43675;50.030;21.952;2023-03-01T10:27:04;49.10;;;37.60;;
57846;SDS011;43675;50.030;21.952;2023-03-01T10:29:41;50.40;;;35.80;;
57846;SDS011;43675;50.030;21.952;2023-03-01T10:32:17;69.10;;;45.00;;
57846;SDS011;43675;50.030;21.952;2023-03-01T10:34:44;49.20;;;35.70;;
57846;SDS011;43675;50.030;21.952;2023-03-01T10:37:15;43.90;;;32.60;;
57846;SDS011;43675;50.030;21.952;2023-03-01T10:40:01;43.10;;;33.50;;
57846;SDS011;43675;50.030;21.952;2023-03-01T10:42:31;44.10;;;33.70;;
57846;SDS011;43675;50.030;21.952;2023-03-01T10:48:06;44.70;;;33.80;;
57846;SDS011;43675;50.030;21.952;2023-03-01T10:50:45;44.20;;;34.10;;
57846;SDS011;43675;50.030;21.952;2023-03-01T10:53:24;42.00;;;34.10;;
57846;SDS011;43675;50.030;21.952;2023-03-01T10:56:10;42.60;;;33.60;;
57846;SDS011;43675;50.030;21.952;2023-03-01T10:58:40;45.10;;;33.50;;
57846;SDS011;43675;50.030;21.952;2023-03-01T11:06:34;43.00;;;32.60;;
57846;SDS011;43675;50.030;21.952;2023-03-01T11:09:21;41.50;;;32.10;;
57846;SDS011;43675;50.030;21.952;2023-03-01T11:11:56;45.00;;;32.70;;
57846;SDS011;43675;50.030;21.952;2023-03-01T11:14:26;39.10;;;32.00;;
57846;SDS011;43675;50.030;21.952;2023-03-01T11:17:02;41.50;;;32.10;;
57846;SDS011;43675;50.030;21.952;2023-03-01T11:19:31;44.00;;;31.80;;
57846;SDS011;43675;50.030;21.952;2023-03-01T11:22:00;40.40;;;31.00;;
57846;SDS011;43675;50.030;21.952;2023-03-01T11:24:34;42.10;;;31.90;;
57846;SDS011;43675;50.030;21.952;2023-03-01T11:27:17;44.40;;;32.30;;
57846;SDS011;43675;50.030;21.952;2023-03-01T11:32:36;41.90;;;31.20;;
57846;SDS011;43675;50.030;21.952;2023-03-01T11:35:19;43.10;;;31.50;;
57846;SDS011;43675;50.030;21.952;2023-03-01T11:38:02;41.30;;;31.60;;
57846;SDS011;43675;50.030;21.952;2023-03-01T11:40:38;41.20;;;30.90;;
57846;SDS011;43675;50.030;21.952;2023-03-01T11:48:48;40.30;;;30.50;;
57846;SDS011;43675;50.030;21.952;2023-03-01T12:13:18;45.40;;;33.50;;
57846;SDS011;43675;50.030;21.952;2023-03-01T12:22:01;39.50;;;32.60;;
57846;SDS011;43675;50.030;21.952;2023-03-01T12:36:08;39.50;;;31.90;;
57846;SDS011;43675;50.030;21.952;2023-03-01T12:39:07;42.80;;;32.20;;
57846;SDS011;43675;50.030;21.952;2023-03-01T12:41:47;37.60;;;31.80;;
57846;SDS011;43675;50.030;21.952;2023-03-01T12:49:53;39.10;;;31.20;;
57846;SDS011;43675;50.030;21.952;2023-03-01T12:52:24;38.70;;;31.90;;
57846;SDS011;43675;50.030;21.952;2023-03-01T12:55:24;35.60;;;29.60;;
57846;SDS011;43675;50.030;21.952;2023-03-01T12:58:02;33.50;;;28.50;;
57846;SDS011;43675;50.030;21.952;2023-03-01T13:00:32;35.40;;;28.20;;
57846;SDS011;43675;50.030;21.952;2023-03-01T13:05:57;37.90;;;28.60;;
57846;SDS011;43675;50.030;21.952;2023-03-01T13:08:49;37.40;;;28.70;;
57846;SDS011;43675;50.030;21.952;2023-03-01T13:11:21;35.50;;;28.50;;
57846;SDS011;43675;50.030;21.952;2023-03-01T13:13:49;38.70;;;28.90;;
57846;SDS011;43675;50.030;21.952;2023-03-01T13:16:20;35.80;;;28.40;;
57846;SDS011;43675;50.030;21.952;2023-03-01T13:19:06;32.60;;;26.10;;
57846;SDS011;43675;50.030;21.952;2023-03-01T13:21:55;27.90;;;24.20;;
57846;SDS011;43675;50.030;21.952;2023-03-01T13:29:51;25.90;;;23.10;;
57846;SDS011;43675;50.030;21.952;2023-03-01T13:34:47;24.10;;;21.70;;
57846;SDS011;43675;50.030;21.952;2023-03-01T13:37:23;22.90;;;20.60;;
57846;SDS011;43675;50.030;21.952;2023-03-01T13:39:52;23.90;;;21.40;;
57846;SDS011;43675;50.030;21.952;2023-03-01T13:42:33;24.40;;;20.70;;
57846;SDS011;43675;50.030;21.952;2023-03-01T13:45:03;23.70;;;21.20;;
57846;SDS011;43675;50.030;21.952;2023-03-01T13:47:41;23.40;;;21.10;;
57846;SDS011;43675;50.030;21.952;2023-03-01T13:50:16;23.30;;;20.90;;
57846;SDS011;43675;50.030;21.952;2023-03-01T13:52:50;26.50;;;21.50;;
57846;SDS011;43675;50.030;21.952;2023-03-01T13:55:22;23.60;;;20.60;;
57846;SDS011;43675;50.030;21.952;2023-03-01T13:57:57;23.20;;;20.80;;
57846;SDS011;43675;50.030;21.952;2023-03-01T14:00:34;24.20;;;21.40;;
57846;SDS011;43675;50.030;21.952;2023-03-01T14:03:15;23.30;;;20.70;;
57846;SDS011;43675;50.030;21.952;2023-03-01T14:05:57;23.70;;;21.10;;
57846;SDS011;43675;50.030;21.952;2023-03-01T14:08:28;25.80;;;22.50;;
57846;SDS011;43675;50.030;21.952;2023-03-01T14:17:10;25.10;;;22.50;;
57846;SDS011;43675;50.030;21.952;2023-03-01T14:19:53;26.30;;;23.50;;
57846;SDS011;43675;50.030;21.952;2023-03-01T14:22:34;26.60;;;23.70;;
57846;SDS011;43675;50.030;21.952;2023-03-01T14:25:06;28.30;;;24.80;;
57846;SDS011;43675;50.030;21.952;2023-03-01T14:27:45;28.20;;;23.70;;
57846;SDS011;43675;50.030;21.952;2023-03-01T14:30:27;26.80;;;22.70;;
57846;SDS011;43675;50.030;21.952;2023-03-01T14:33:15;26.60;;;23.70;;
57846;SDS011;43675;50.030;21.952;2023-03-01T14:35:56;28.00;;;23.80;;
57846;SDS011;43675;50.030;21.952;2023-03-01T14:38:27;30.30;;;23.60;;
57846;SDS011;43675;50.030;21.952;2023-03-01T14:41:00;25.50;;;22.80;;
57846;SDS011;43675;50.030;21.952;2023-03-01T14:43:31;27.70;;;23.00;;
57846;SDS011;43675;50.030;21.952;2023-03-01T14:45:58;26.40;;;23.00;;
57846;SDS011;43675;50.030;21.952;2023-03-01T14:48:26;26.10;;;23.30;;
57846;SDS011;43675;50.030;21.952;2023-03-01T14:50:54;24.60;;;21.90;;
57846;SDS011;43675;50.030;21.952;2023-03-01T14:53:26;27.80;;;22.50;;
57846;SDS011;43675;50.030;21.952;2023-03-01T14:55:56;25.70;;;22.60;;
57846;SDS011;43675;50.030;21.952;2023-03-01T14:58:27;27.20;;;22.50;;
57846;SDS011;43675;50.030;21.952;2023-03-01T15:00:55;26.30;;;22.70;;
57846;SDS011;43675;50.030;21.952;2023-03-01T15:03:31;27.00;;;23.10;;
57846;SDS011;43675;50.030;21.952;2023-03-01T15:06:01;27.00;;;22.80;;
57846;SDS011;43675;50.030;21.952;2023-03-01T15:08:29;27.40;;;23.00;;
57846;SDS011;43675;50.030;21.952;2023-03-01T15:13:39;27.10;;;22.40;;
57846;SDS011;43675;50.030;21.952;2023-03-01T15:19:00;28.00;;;22.70;;
57846;SDS011;43675;50.030;21.952;2023-03-01T15:21:30;26.60;;;23.40;;
57846;SDS011;43675;50.030;21.952;2023-03-01T15:26:39;29.50;;;22.60;;
57846;SDS011;43675;50.030;21.952;2023-03-01T15:29:11;31.60;;;23.40;;
57846;SDS011;43675;50.030;21.952;2023-03-01T15:31:47;29.10;;;23.10;;
57846;SDS011;43675;50.030;21.952;2023-03-01T15:36:52;29.20;;;23.30;;
57846;SDS011;43675;50.030;21.952;2023-03-01T15:40:03;25.90;;;22.90;;
57846;SDS011;43675;50.030;21.952;2023-03-01T15:50:23;32.20;;;23.50;;
57846;SDS011;43675;50.030;21.952;2023-03-01T15:52:55;29.00;;;23.40;;
57846;SDS011;43675;50.030;21.952;2023-03-01T15:55:25;31.60;;;24.50;;
57846;SDS011;43675;50.030;21.952;2023-03-01T15:58:00;32.30;;;25.20;;
57846;SDS011;43675;50.030;21.952;2023-03-01T16:00:30;37.40;;;25.80;;
57846;SDS011;43675;50.030;21.952;2023-03-01T16:02:57;42.10;;;27.90;;
57846;SDS011;43675;50.030;21.952;2023-03-01T16:05:25;45.10;;;28.90;;
57846;SDS011;43675;50.030;21.952;2023-03-01T16:07:52;46.60;;;30.50;;
57846;SDS011;43675;50.030;21.952;2023-03-01T16:10:20;45.60;;;30.00;;
57846;SDS011;43675;50.030;21.952;2023-03-01T16:12:47;45.20;;;29.30;;
57846;SDS011;43675;50.030;21.952;2023-03-01T16:15:21;40.60;;;27.20;;
57846;SDS011;43675;50.030;21.952;2023-03-01T16:17:50;40.50;;;27.60;;